Time;durP1;ratioP1;P1;durP2;ratioP2;P2;SDS_P1;SDS_P2;PMS_P1;PMS_P2;Temp;Humidity;BMP_temperature;BMP_pressure;BME280_temperature;BME280_humidity;BME280_pressure;Samples;Min_cycle;Max_cycle;Signal;HPM_P1;HPM_P2
2022/09/17 00:00:33;;;;;;;;;;;;;;;20.82;77.60;99902.84;5032857;28;19924;-86
2022/09/17 00:02:58;;;;;;;;;;;;;;;20.79;77.70;99915.09;5050975;28;19924;-85
2022/09/17 00:05:23;;;;;;;;;;;;;;;20.79;77.50;99906.91;5012212;28;19928;-85
2022/09/17 00:07:50;;;;;;;;;;;;;;;20.79;77.34;99903.31;5030913;28;20312;-85
2022/09/17 00:10:17;;;;;;;;;;;;;;;20.72;76.22;99897.19;5049699;28;19913;-84
2022/09/17 00:12:43;;;;;;;;;;;;;;;20.73;75.74;99894.22;5050831;28;20003;-84
2022/09/17 00:15:24;;;;;;;;;;;;;;;20.62;74.98;99889.66;5023504;28;20011;-83
2022/09/17 00:18:02;;;;;;;;;;;;;;;20.61;73.72;99883.38;5027488;28;20004;-84
2022/09/17 00:20:30;;;;;;;;;;;;;;;20.64;72.81;99882.03;5033708;28;19913;-83
2022/09/17 00:22:55;;;;;;;;;;;;;;;20.64;72.05;99882.03;5033343;28;19919;-84
2022/09/17 00:25:22;;;;;;;;;;;;;;;20.60;72.23;99886.34;5016499;28;19913;-83
2022/09/17 00:27:49;;;;;;;;;;;;;;;20.61;72.65;99888.00;5045375;28;19913;-84
2022/09/17 00:30:14;;;;;;;;;;;;;;;20.62;72.58;99881.47;5028668;28;19913;-84
2022/09/17 00:32:44;;;;;;;;;;;;;;;20.57;73.08;99884.09;5033450;28;19919;-83
2022/09/17 00:35:10;;;;;;;;;;;;;;;20.57;73.17;99884.94;5050670;28;20011;-84
2022/09/17 00:37:36;;;;;;;;;;;;;;;20.54;73.79;99890.84;5033589;28;19923;-83
2022/09/17 00:40:01;;;;;;;;;;;;;;;20.55;74.35;99883.50;5030593;28;20295;-82
2022/09/17 00:42:27;;;;;;;;;;;;;;;20.49;74.81;99876.28;5016690;28;19916;-83
2022/09/17 00:44:53;;;;;;;;;;;;;;;20.45;74.64;99874.03;5029195;28;20337;-84
2022/09/17 00:47:29;;;;;;;;;;;;;;;20.44;74.58;99875.13;5030238;28;19970;-85
2022/09/17 00:50:09;;;;;;;;;;;;;;;20.42;74.73;99869.06;5048431;28;20351;-84
2022/09/17 00:52:38;;;;;;;;;;;;;;;20.43;74.68;99875.34;5033038;28;19939;-84
2022/09/17 00:55:06;;;;;;;;;;;;;;;20.39;74.74;99869.56;5025330;28;19916;-84
2022/09/17 00:57:32;;;;;;;;;;;;;;;20.38;74.95;99869.81;5035355;28;19955;-83
2022/09/17 00:59:58;;;;;;;;;;;;;;;20.39;75.31;99875.03;5020671;28;20328;-84
2022/09/17 01:02:32;;;;;;;;;;;;;;;20.38;75.89;99873.34;5030361;28;19913;-83
2022/09/17 01:04:58;;;;;;;;;;;;;;;20.42;75.96;99881.91;5025699;28;19995;-83
2022/09/17 01:07:35;;;;;;;;;;;;;;;20.37;77.10;99879.91;5037142;28;20015;-84
2022/09/17 01:10:30;;;;;;;;;;;;;;;20.29;77.57;99879.47;5054420;28;20387;-83
2022/09/17 01:13:01;;;;;;;;;;;;;;;20.32;77.40;99874.34;4977045;28;19929;-84
2022/09/17 01:15:50;;;;;;;;;;;;;;;20.31;77.54;99882.78;5020849;28;19920;-84
2022/09/17 01:18:20;;;;;;;;;;;;;;;20.39;76.92;99875.03;5030789;28;19921;-84
2022/09/17 01:21:04;;;;;;;;;;;;;;;20.37;76.90;99885.38;5050281;28;19959;-82
2022/09/17 01:23:42;;;;;;;;;;;;;;;20.48;76.63;99893.72;5053238;28;20368;-82
2022/09/17 01:26:08;;;;;;;;;;;;;;;20.52;76.34;99889.44;5050759;28;19943;-84
2022/09/17 01:28:33;;;;;;;;;;;;;;;20.58;76.18;99885.75;5036169;28;19913;-84
2022/09/17 01:31:03;;;;;;;;;;;;;;;20.67;75.64;99878.81;5053497;28;19913;-85
2022/09/17 01:33:31;;;;;;;;;;;;;;;20.73;74.98;99877.00;5051926;28;19947;-84
2022/09/17 01:36:16;;;;;;;;;;;;;;;20.76;74.81;99879.25;5053840;28;19916;-83
2022/09/17 01:38:44;;;;;;;;;;;;;;;20.73;74.90;99875.09;5035815;28;19994;-83
2022/09/17 01:41:29;;;;;;;;;;;;;;;20.77;74.76;99870.00;5040080;28;19983;-83
2022/09/17 01:43:58;;;;;;;;;;;;;;;20.85;74.51;99872.31;5031711;28;19913;-84
2022/09/17 01:46:26;;;;;;;;;;;;;;;20.91;74.54;99862.28;5034640;28;19917;-84
2022/09/17 01:51:55;;;;;;;;;;;;;;;20.95;74.22;99863.44;5039862;28;19963;-83
2022/09/17 01:54:30;;;;;;;;;;;;;;;20.94;74.11;99859.88;5034708;28;20370;-84
2022/09/17 01:56:55;;;;;;;;;;;;;;;20.93;73.97;99854.66;5035733;28;19944;-84
2022/09/17 01:59:47;;;;;;;;;;;;;;;20.92;74.10;99851.09;5034498;28;19960;-85
2022/09/17 02:02:12;;;;;;;;;;;;;;;20.96;74.11;99856.91;5042682;28;19920;-83
2022/09/17 02:04:41;;;;;;;;;;;;;;;20.92;73.61;99858.47;5033772;28;20276;-84
2022/09/17 02:07:13;;;;;;;;;;;;;;;20.98;73.39;99860.22;5035049;28;19920;-84
2022/09/17 02:09:50;;;;;;;;;;;;;;;21.03;73.63;99857.56;5025817;28;19924;-84
2022/09/17 02:12:19;;;;;;;;;;;;;;;21.05;73.37;99860.88;5052042;28;19917;-84
2022/09/17 02:14:46;;;;;;;;;;;;;;;21.08;73.15;99857.66;5050259;28;20403;-84
2022/09/17 02:17:14;;;;;;;;;;;;;;;21.08;72.55;99861.19;5021905;28;19960;-84
2022/09/17 02:19:40;;;;;;;;;;;;;;;20.97;71.63;99862.09;5032827;28;19920;-83
2022/09/17 02:22:21;;;;;;;;;;;;;;;20.90;72.15;99861.44;5034815;28;19919;-84
2022/09/17 02:25:05;;;;;;;;;;;;;;;20.95;71.87;99858.78;5047525;28;19916;-84
2022/09/17 02:27:37;;;;;;;;;;;;;;;20.90;71.92;99858.72;5051862;28;19917;-83
2022/09/17 02:30:02;;;;;;;;;;;;;;;20.92;71.84;99850.28;5046230;28;20007;-84
2022/09/17 02:32:29;;;;;;;;;;;;;;;20.84;72.36;99843.34;5040335;28;19971;-83
2022/09/17 02:34:55;;;;;;;;;;;;;;;20.92;72.08;99850.28;5049793;28;20016;-85
2022/09/17 02:37:22;;;;;;;;;;;;;;;20.92;72.26;99845.63;5034613;28;19966;-84
2022/09/17 02:39:50;;;;;;;;;;;;;;;20.84;72.57;99844.16;5017563;28;19948;-84
2022/09/17 02:42:43;;;;;;;;;;;;;;;20.89;72.79;99846.16;5034311;28;20015;-82
2022/09/17 02:45:11;;;;;;;;;;;;;;;20.96;72.61;99840.53;5050372;28;19937;-84
2022/09/17 02:47:39;;;;;;;;;;;;;;;20.84;72.49;99838.69;5042264;28;20341;-84
2022/09/17 02:50:15;;;;;;;;;;;;;;;20.82;72.50;99840.84;5048207;28;20343;-84
2022/09/17 02:52:47;;;;;;;;;;;;;;;20.85;72.44;99832.13;5033414;28;19912;-83
2022/09/17 02:55:23;;;;;;;;;;;;;;;20.92;72.52;99833.88;5021310;28;20037;-83
2022/09/17 02:57:58;;;;;;;;;;;;;;;20.93;72.74;99836.38;5028737;28;20372;-84
2022/09/17 03:00:23;;;;;;;;;;;;;;;20.91;72.39;99833.06;5026681;28;19921;-83
2022/09/17 03:02:50;;;;;;;;;;;;;;;20.94;72.27;99831.75;5020721;28;19924;-87
2022/09/17 03:05:16;;;;;;;;;;;;;;;20.92;72.27;99828.44;5051282;28;19921;-83
2022/09/17 03:07:42;;;;;;;;;;;;;;;20.82;72.69;99829.91;5015704;28;19928;-84
2022/09/17 03:10:07;;;;;;;;;;;;;;;20.82;72.80;99821.72;5022719;28;19918;-84
2022/09/17 03:12:37;;;;;;;;;;;;;;;20.78;72.91;99812.38;5013377;28;20003;-83
2022/09/17 03:15:08;;;;;;;;;;;;;;;20.78;72.86;99808.81;5044766;28;19956;-84
2022/09/17 03:17:33;;;;;;;;;;;;;;;20.62;73.71;99813.19;5048968;28;19974;-84
2022/09/17 03:20:00;;;;;;;;;;;;;;;20.70;73.50;99809.22;5033589;28;20385;-84
2022/09/17 03:22:25;;;;;;;;;;;;;;;20.69;73.45;99807.56;5033252;28;19916;-84
2022/09/17 03:24:51;;;;;;;;;;;;;;;20.66;73.63;99803.44;5033731;28;19951;-84
2022/09/17 03:27:17;;;;;;;;;;;;;;;20.57;73.84;99810.38;5069705;28;19921;-83
2022/09/17 03:29:45;;;;;;;;;;;;;;;20.49;73.91;99806.13;5052098;28;20003;-84
2022/09/17 03:32:10;;;;;;;;;;;;;;;20.37;74.28;99806.19;5049478;28;19994;-84
2022/09/17 03:34:37;;;;;;;;;;;;;;;20.35;74.36;99808.34;5043068;28;20385;-84
2022/09/17 03:37:03;;;;;;;;;;;;;;;20.31;74.55;99820.81;5033094;28;19913;-84
2022/09/17 03:39:28;;;;;;;;;;;;;;;20.20;75.12;99818.97;5050617;28;20399;-84
2022/09/17 03:41:56;;;;;;;;;;;;;;;20.08;75.32;99823.66;5026999;28;19913;-83
2022/09/17 03:44:23;;;;;;;;;;;;;;;20.10;75.30;99826.97;5033694;28;20437;-84
2022/09/17 03:47:15;;;;;;;;;;;;;;;20.10;75.14;99821.53;5030973;28;19913;-86
2022/09/17 03:49:41;;;;;;;;;;;;;;;20.09;75.72;99814.41;5051659;28;20101;-84
2022/09/17 03:55:10;;;;;;;;;;;;;;;20.00;75.94;99812.06;5051532;28;19929;-82
2022/09/17 03:57:35;;;;;;;;;;;;;;;20.03;75.85;99808.84;5044337;28;19974;-83
2022/09/17 04:00:01;;;;;;;;;;;;;;;20.03;75.79;99808.84;5044192;28;19925;-83
2022/09/17 04:02:26;;;;;;;;;;;;;;;20.06;75.53;99812.97;5047559;28;19920;-83
2022/09/17 04:04:52;;;;;;;;;;;;;;;20.07;75.28;99813.84;5024219;28;19928;-84
2022/09/17 04:07:19;;;;;;;;;;;;;;;20.07;75.56;99802.94;5047310;28;19971;-83
2022/09/17 04:09:47;;;;;;;;;;;;;;;20.05;75.49;99799.59;5023680;28;19916;-84
2022/09/17 04:12:12;;;;;;;;;;;;;;;20.12;75.09;99795.66;5050581;28;19974;-85
2022/09/17 04:14:38;;;;;;;;;;;;;;;20.19;74.67;99798.22;5043110;28;20191;-83
2022/09/17 04:17:03;;;;;;;;;;;;;;;20.26;74.37;99798.09;5015196;28;19919;-83
2022/09/17 04:19:28;;;;;;;;;;;;;;;20.28;74.16;99796.75;5050614;28;19963;-84
2022/09/17 04:21:54;;;;;;;;;;;;;;;20.32;73.89;99791.63;5024288;28;20000;-83
2022/09/17 04:24:21;;;;;;;;;;;;;;;20.35;73.30;99775.59;5038824;28;19955;-85
2022/09/17 04:26:51;;;;;;;;;;;;;;;20.27;73.41;99781.44;5026045;28;19909;-85
2022/09/17 04:29:17;;;;;;;;;;;;;;;20.42;73.01;99776.25;5043891;28;19916;-84
2022/09/17 04:31:42;;;;;;;;;;;;;;;20.50;72.93;99782.38;5026312;28;20623;-84
2022/09/17 04:34:15;;;;;;;;;;;;;;;20.59;72.57;99791.84;5022220;28;20295;-82
2022/09/17 04:36:40;;;;;;;;;;;;;;;20.48;73.42;99796.28;5019809;28;20369;-84
2022/09/17 04:39:05;;;;;;;;;;;;;;;20.51;73.62;99792.22;5050220;28;19912;-83
2022/09/17 04:41:35;;;;;;;;;;;;;;;20.65;73.27;99801.78;5035908;28;20315;-83
2022/09/17 04:44:01;;;;;;;;;;;;;;;20.60;73.63;99798.94;5035516;28;20010;-84
2022/09/17 04:46:26;;;;;;;;;;;;;;;20.59;72.99;99791.84;5031539;28;20309;-84
2022/09/17 04:48:56;;;;;;;;;;;;;;;20.63;72.70;99793.00;5022598;28;19923;-84
2022/09/17 04:51:26;;;;;;;;;;;;;;;20.66;72.47;99792.50;5016430;28;19980;-82
2022/09/17 04:53:51;;;;;;;;;;;;;;;20.73;71.97;99790.44;5022445;28;19921;-85
2022/09/17 04:56:19;;;;;;;;;;;;;;;20.84;71.31;99778.59;5048896;28;19916;-83
2022/09/17 04:58:56;;;;;;;;;;;;;;;20.93;71.12;99769.97;5053842;28;19974;-83
2022/09/17 05:01:21;;;;;;;;;;;;;;;21.04;70.52;99771.78;5036263;28;20002;-84
2022/09/17 05:03:47;;;;;;;;;;;;;;;21.07;70.74;99769.38;5019210;28;20396;-84
2022/09/17 05:06:14;;;;;;;;;;;;;;;21.26;70.27;99763.63;5035871;28;19913;-84
2022/09/17 05:08:45;;;;;;;;;;;;;;;21.37;69.70;99756.34;5036126;28;19912;-84
2022/09/17 05:11:12;;;;;;;;;;;;;;;21.43;69.56;99744.44;5052362;28;20009;-84
2022/09/17 05:13:39;;;;;;;;;;;;;;;21.58;69.32;99744.63;5036924;28;19913;-85
2022/09/17 05:16:05;;;;;;;;;;;;;;;21.73;68.76;99740.38;5020896;28;19913;-84
2022/09/17 05:18:32;;;;;;;;;;;;;;;21.81;68.39;99742.69;5054010;28;19928;-83
2022/09/17 05:20:57;;;;;;;;;;;;;;;21.92;68.15;99739.78;5019691;28;19916;-84
2022/09/17 05:23:25;;;;;;;;;;;;;;;22.00;67.50;99743.16;5031575;28;19970;-83
2022/09/17 05:25:51;;;;;;;;;;;;;;;22.12;67.02;99749.28;5053102;28;19913;-86
2022/09/17 05:28:21;;;;;;;;;;;;;;;22.23;66.06;99748.31;5054087;28;19913;-83
2022/09/17 05:30:46;;;;;;;;;;;;;;;23.15;64.08;99751.75;5037231;28;20361;-84
2022/09/17 05:33:13;;;;;;;;;;;;;;;24.47;60.87;99749.69;5035702;28;19930;-85
2022/09/17 05:35:40;;;;;;;;;;;;;;;25.37;58.99;99753.66;5021349;28;20316;-83
2022/09/17 05:38:06;;;;;;;;;;;;;;;26.08;55.46;99738.69;5052763;28;19913;-88
2022/09/17 05:40:32;;;;;;;;;;;;;;;26.75;54.54;99750.03;5025458;28;19928;-85
2022/09/17 05:42:59;;;;;;;;;;;;;;;27.32;51.75;99744.75;5004529;28;19917;-86
2022/09/17 05:45:24;;;;;;;;;;;;;;;27.80;49.74;99725.34;5055164;28;20069;-86
2022/09/17 05:47:56;;;;;;;;;;;;;;;27.44;50.99;99736.88;5038780;28;20490;-85
2022/09/17 05:50:22;;;;;;;;;;;;;;;27.14;50.91;99733.34;5034001;28;19921;-84
2022/09/17 05:52:47;;;;;;;;;;;;;;;27.22;50.32;99745.69;5053340;28;19950;-86
2022/09/17 05:55:15;;;;;;;;;;;;;;;27.65;49.65;99734.69;5037263;28;19917;-85
2022/09/17 05:57:40;;;;;;;;;;;;;;;28.07;48.54;99727.44;5053509;28;20327;-85
2022/09/17 06:00:08;;;;;;;;;;;;;;;28.28;48.46;99722.41;5030750;28;19916;-84
2022/09/17 06:02:42;;;;;;;;;;;;;;;28.36;47.20;99727.25;5040794;28;19923;-87
2022/09/17 06:05:24;;;;;;;;;;;;;;;28.84;45.17;99720.63;5048849;28;20438;-85
2022/09/17 06:07:50;;;;;;;;;;;;;;;29.15;44.36;99729.22;5035549;28;19924;-85
2022/09/17 06:10:16;;;;;;;;;;;;;;;29.35;44.84;99732.69;5053404;28;19917;-84
2022/09/17 06:12:42;;;;;;;;;;;;;;;29.57;44.36;99735.53;5058069;28;19921;-88
2022/09/17 06:15:07;;;;;;;;;;;;;;;29.82;43.38;99730.56;5037562;28;19917;-85
2022/09/17 06:17:34;;;;;;;;;;;;;;;29.95;42.36;99735.25;5044738;28;19958;-87
2022/09/17 06:20:01;;;;;;;;;;;;;;;30.05;42.05;99740.56;5047436;28;19927;-87
2022/09/17 06:22:26;;;;;;;;;;;;;;;30.35;40.73;99732.69;5039399;28;19913;-91
2022/09/17 06:24:52;;;;;;;;;;;;;;;30.59;39.83;99731.53;5048539;28;19920;-89
2022/09/17 06:27:18;;;;;;;;;;;;;;;30.68;39.80;99735.97;5064023;28;19983;-86
2022/09/17 06:29:46;;;;;;;;;;;;;;;30.90;38.79;99726.00;5046908;28;19996;-89
2022/09/17 06:32:14;;;;;;;;;;;;;;;31.10;38.75;99724.63;5054221;28;19928;-86
2022/09/17 06:34:40;;;;;;;;;;;;;;;31.23;38.50;99720.88;5057951;28;19932;-85
2022/09/17 06:37:12;;;;;;;;;;;;;;;31.20;38.67;99724.31;5054075;28;19931;-86
2022/09/17 06:39:37;;;;;;;;;;;;;;;31.47;38.69;99728.03;5052909;28;20058;-85
2022/09/17 06:42:03;;;;;;;;;;;;;;;31.57;39.08;99721.34;5033117;28;20376;-88
2022/09/17 06:44:28;;;;;;;;;;;;;;;31.60;38.48;99727.06;5037437;28;19916;-86
2022/09/17 06:46:55;;;;;;;;;;;;;;;31.99;38.23;99721.75;5051977;28;19960;-90
2022/09/17 06:49:21;;;;;;;;;;;;;;;31.96;36.27;99724.03;5052128;28;20459;-89
2022/09/17 06:51:46;;;;;;;;;;;;;;;32.25;35.13;99713.38;5055512;28;19956;-88
2022/09/17 06:54:12;;;;;;;;;;;;;;;32.43;34.09;99708.59;5034291;28;19924;-88
2022/09/17 06:56:37;;;;;;;;;;;;;;;32.44;33.92;99710.25;5048978;28;19952;-86
2022/09/17 06:59:04;;;;;;;;;;;;;;;32.57;34.95;99704.50;5054128;28;19901;-88
2022/09/17 07:01:29;;;;;;;;;;;;;;;32.82;35.32;99710.31;5032848;28;19916;-90
2022/09/17 07:03:56;;;;;;;;;;;;;;;33.09;34.33;99711.06;5034577;28;19989;-88
2022/09/17 07:06:24;;;;;;;;;;;;;;;33.22;33.95;99721.97;5057311;28;19924;-88
2022/09/17 07:08:52;;;;;;;;;;;;;;;33.17;33.64;99716.56;5050525;28;19924;-88
2022/09/17 07:11:19;;;;;;;;;;;;;;;33.12;34.57;99707.59;5052456;28;19916;-86
2022/09/17 07:13:44;;;;;;;;;;;;;;;33.59;33.71;99715.88;5051987;28;19917;-87
2022/09/17 07:16:11;;;;;;;;;;;;;;;33.84;33.32;99716.84;5015991;28;20364;-86
2022/09/17 07:18:38;;;;;;;;;;;;;;;33.81;32.78;99712.75;5032565;28;20304;-88
2022/09/17 07:21:05;;;;;;;;;;;;;;;33.56;32.84;99722.91;5048640;28;19976;-92
2022/09/17 07:23:34;;;;;;;;;;;;;;;33.79;32.77;99715.06;5012363;28;20004;-88
2022/09/17 07:26:02;;;;;;;;;;;;;;;33.73;32.49;99710.84;5009659;28;19980;-90
2022/09/17 07:28:29;;;;;;;;;;;;;;;33.77;32.49;99727.72;5048723;28;19924;-87
2022/09/17 07:30:54;;;;;;;;;;;;;;;33.75;31.92;99727.25;5032442;28;19970;-91
2022/09/17 07:33:22;;;;;;;;;;;;;;;33.70;32.68;99728.25;5035944;28;19916;-84
2022/09/17 07:35:53;;;;;;;;;;;;;;;34.38;32.75;99730.00;5035532;28;20292;-87
2022/09/17 07:38:20;;;;;;;;;;;;;;;34.76;30.64;99729.78;5055168;28;19980;-91
2022/09/17 07:40:52;;;;;;;;;;;;;;;35.13;30.39;99731.84;5044030;28;19946;-85
2022/09/17 07:43:19;;;;;;;;;;;;;;;35.17;29.79;99729.97;5046920;28;20392;-90
2022/09/17 07:45:44;;;;;;;;;;;;;;;35.53;30.11;99728.31;5035527;28;19920;-87
2022/09/17 07:48:10;;;;;;;;;;;;;;;36.30;28.66;99719.88;5033678;28;19963;-90
2022/09/17 07:50:36;;;;;;;;;;;;;;;36.62;28.22;99717.16;5027206;28;19917;-87
2022/09/17 07:53:03;;;;;;;;;;;;;;;37.15;26.45;99712.13;5029521;28;19932;-86
2022/09/17 07:55:31;;;;;;;;;;;;;;;37.88;25.79;99721.81;5031549;28;20247;-88
2022/09/17 07:57:56;;;;;;;;;;;;;;;38.85;25.10;99715.34;5019735;28;19913;-86
2022/09/17 08:00:23;;;;;;;;;;;;;;;39.72;23.79;99714.72;5029746;28;19932;-87
2022/09/17 08:02:54;;;;;;;;;;;;;;;40.40;22.89;99716.38;5049413;28;19924;-89
2022/09/17 08:05:20;;;;;;;;;;;;;;;40.68;21.96;99718.72;5031806;28;19917;-89
2022/09/17 08:07:52;;;;;;;;;;;;;;;41.20;21.48;99707.50;5016847;28;19921;-89
2022/09/17 08:10:22;;;;;;;;;;;;;;;42.31;19.98;99701.63;5030454;28;20318;-89
2022/09/17 08:12:55;;;;;;;;;;;;;;;42.82;19.60;99696.91;5050909;28;20368;-86
2022/09/17 08:15:21;;;;;;;;;;;;;;;42.65;19.22;99699.28;5030161;28;20304;-88
2022/09/17 08:17:51;;;;;;;;;;;;;;;43.16;18.85;99700.13;5048396;28;19920;-87
2022/09/17 08:20:18;;;;;;;;;;;;;;;43.40;18.88;99693.63;5031066;28;20357;-87
2022/09/17 08:22:44;;;;;;;;;;;;;;;44.03;18.17;99691.03;5053126;28;19924;-89
2022/09/17 08:25:09;;;;;;;;;;;;;;;43.62;18.00;99694.41;5053148;28;19995;-87
2022/09/17 08:27:45;;;;;;;;;;;;;;;43.35;18.03;99690.41;5039393;28;20415;-89
2022/09/17 08:30:11;;;;;;;;;;;;;;;43.25;18.15;99671.44;5016541;28;19912;-89
2022/09/17 08:32:37;;;;;;;;;;;;;;;43.50;17.80;99679.84;5032329;28;19940;-86
2022/09/17 08:35:10;;;;;;;;;;;;;;;44.28;17.95;99675.91;5063373;28;19939;-89
2022/09/17 08:37:39;;;;;;;;;;;;;;;44.88;17.14;99673.88;5029162;28;19921;-89
2022/09/17 08:40:09;;;;;;;;;;;;;;;45.56;16.74;99673.19;5052486;28;19928;-88
2022/09/17 08:42:55;;;;;;;;;;;;;;;44.92;16.97;99682.38;5050118;28;19917;-90
2022/09/17 08:45:20;;;;;;;;;;;;;;;42.89;18.12;99674.28;5055539;28;19917;-88
2022/09/17 08:47:47;;;;;;;;;;;;;;;43.17;18.74;99668.59;5055663;28;19913;-89
2022/09/17 08:50:14;;;;;;;;;;;;;;;42.89;18.52;99658.13;5038013;28;19928;-89
2022/09/17 08:52:52;;;;;;;;;;;;;;;41.56;19.89;99656.97;5021766;28;20381;-88
2022/09/17 08:55:32;;;;;;;;;;;;;;;43.54;18.63;99652.38;5036861;28;19927;-87
2022/09/17 08:58:22;;;;;;;;;;;;;;;43.90;17.79;99653.03;5041437;28;20003;-87
2022/09/17 09:01:07;;;;;;;;;;;;;;;44.92;17.04;99640.63;5045977;28;20321;-91
2022/09/17 09:03:50;;;;;;;;;;;;;;;45.89;16.38;99633.88;5034389;28;19972;-88
2022/09/17 09:06:16;;;;;;;;;;;;;;;44.08;17.34;99643.69;5043086;28;19985;-88
2022/09/17 09:08:46;;;;;;;;;;;;;;;44.67;17.55;99632.31;5054442;28;20372;-87
2022/09/17 09:11:16;;;;;;;;;;;;;;;43.14;18.80;99632.66;5035800;28;19986;-88
2022/09/17 09:13:50;;;;;;;;;;;;;;;43.99;18.66;99627.09;5036391;28;19913;-88
2022/09/17 09:16:18;;;;;;;;;;;;;;;41.95;20.66;99622.44;5034954;28;20369;-88
2022/09/17 09:18:45;;;;;;;;;;;;;;;42.83;20.20;99623.03;5053087;28;19917;-88
2022/09/17 09:21:23;;;;;;;;;;;;;;;43.67;19.55;99627.28;5053821;28;19920;-89
2022/09/17 09:23:57;;;;;;;;;;;;;;;43.74;18.75;99622.41;5054225;28;20308;-87
2022/09/17 09:26:31;;;;;;;;;;;;;;;42.18;21.13;99617.28;5033150;28;19932;-88
2022/09/17 09:29:04;;;;;;;;;;;;;;;39.53;24.54;99623.66;5020616;28;19912;-88
2022/09/17 09:31:48;;;;;;;;;;;;;;;38.15;26.68;99616.19;5046661;28;19931;-89
2022/09/17 09:34:16;;;;;;;;;;;;;;;39.43;25.41;99618.69;5035642;28;20375;-89
2022/09/17 09:36:44;;;;;;;;;;;;;;;39.87;24.89;99610.44;5050630;28;19951;-90
2022/09/17 09:39:34;;;;;;;;;;;;;;;40.23;24.75;99598.75;5019759;28;20054;-90
2022/09/17 09:42:19;;;;;;;;;;;;;;;41.19;23.57;99615.69;5052295;28;19917;-91
2022/09/17 09:44:45;;;;;;;;;;;;;;;42.06;22.70;99605.59;5036745;28;19916;-88
2022/09/17 09:47:29;;;;;;;;;;;;;;;41.67;22.70;99597.78;5058191;28;19947;-89
2022/09/17 09:50:04;;;;;;;;;;;;;;;43.18;21.14;99595.91;5049855;28;19979;-88
2022/09/17 09:52:45;;;;;;;;;;;;;;;43.68;20.77;99598.56;5016404;28;19924;-89
2022/09/17 09:55:23;;;;;;;;;;;;;;;44.23;20.23;99602.69;5030046;28;19967;-92
2022/09/17 09:57:49;;;;;;;;;;;;;;;43.37;21.45;99608.78;5046172;28;19917;-89
2022/09/17 10:00:25;;;;;;;;;;;;;;;40.68;24.27;99610.84;5031364;28;20342;-88
2022/09/17 10:03:10;;;;;;;;;;;;;;;41.41;23.96;99610.13;5055772;28;20284;-91
2022/09/17 10:05:35;;;;;;;;;;;;;;;42.76;22.79;99608.88;5063627;28;19917;-89
2022/09/17 10:08:09;;;;;;;;;;;;;;;42.31;23.27;99605.59;5059466;28;19924;-88
2022/09/17 10:10:39;;;;;;;;;;;;;;;42.98;22.18;99606.84;5025647;28;19921;-91
2022/09/17 10:13:06;;;;;;;;;;;;;;;43.98;20.96;99609.31;5031245;28;19938;-89
2022/09/17 10:15:35;;;;;;;;;;;;;;;44.23;20.61;99594.19;5068418;28;19999;-88
2022/09/17 10:18:19;;;;;;;;;;;;;;;43.28;20.96;99600.72;5069329;28;19905;-90
2022/09/17 10:20:49;;;;;;;;;;;;;;;43.15;21.96;99588.22;5068383;28;19939;-90
2022/09/17 10:23:15;;;;;;;;;;;;;;;42.02;22.95;99585.81;5036172;28;19917;-89
2022/09/17 10:25:44;;;;;;;;;;;;;;;41.99;22.86;99572.50;5030530;28;19921;-87
2022/09/17 10:28:37;;;;;;;;;;;;;;;42.18;22.94;99579.78;5047562;28;19928;-91
2022/09/17 10:31:24;;;;;;;;;;;;;;;44.65;20.70;99573.25;5053506;28;20321;-90
2022/09/17 10:34:01;;;;;;;;;;;;;;;44.75;20.57;99576.41;5026382;28;19984;-89
2022/09/17 10:36:57;;;;;;;;;;;;;;;44.69;20.25;99578.88;5040531;28;20303;-91
2022/09/17 10:39:25;;;;;;;;;;;;;;;43.40;21.92;99572.00;5046787;28;20007;-92
2022/09/17 10:41:57;;;;;;;;;;;;;;;43.68;21.33;99553.28;5046306;28;19924;-91
2022/09/17 10:44:24;;;;;;;;;;;;;;;42.65;22.71;99540.25;5032825;28;20011;-89
2022/09/17 10:46:50;;;;;;;;;;;;;;;42.30;22.91;99530.56;5018873;28;19989;-89
2022/09/17 10:49:28;;;;;;;;;;;;;;;41.60;24.18;99530.06;5017845;28;20028;-89
2022/09/17 10:52:04;;;;;;;;;;;;;;;40.02;26.57;99535.44;5028005;28;19920;-89
2022/09/17 10:54:39;;;;;;;;;;;;;;;40.19;26.49;99539.59;5035338;28;19940;-88
2022/09/17 10:57:04;;;;;;;;;;;;;;;39.68;27.54;99529.81;5032227;28;19917;-91
2022/09/17 11:00:14;;;;;;;;;;;;;;;41.35;25.30;99533.56;5028492;28;19968;-93
2022/09/17 11:02:40;;;;;;;;;;;;;;;41.82;24.44;99530.91;5039307;28;19913;-91
2022/09/17 11:05:25;;;;;;;;;;;;;;;42.81;23.59;99537.03;5029872;28;20608;-89
2022/09/17 11:08:08;;;;;;;;;;;;;;;42.85;23.83;99541.47;5045509;28;19923;-89
2022/09/17 11:10:42;;;;;;;;;;;;;;;42.13;24.77;99538.66;5029792;28;19966;-90
2022/09/17 11:13:47;;;;;;;;;;;;;;;42.49;24.03;99533.00;5021729;28;19927;-90
2022/09/17 11:16:30;;;;;;;;;;;;;;;41.09;25.83;99529.00;4964201;28;20449;-92
2022/09/17 11:19:16;;;;;;;;;;;;;;;41.99;24.81;99527.34;4956800;28;20010;-91
2022/09/17 11:21:44;;;;;;;;;;;;;;;42.00;24.36;99526.13;4928008;28;20315;-91
2022/09/17 11:24:47;;;;;;;;;;;;;;;41.95;24.27;99526.50;4937356;28;19922;-89
2022/09/17 11:27:31;;;;;;;;;;;;;;;42.34;24.28;99525.75;4882365;29;19926;-90
2022/09/17 11:30:11;;;;;;;;;;;;;;;40.14;26.50;99514.63;5010448;28;19913;-91
2022/09/17 11:32:36;;;;;;;;;;;;;;;41.05;25.35;99497.19;5014445;28;19921;-90
2022/09/17 11:35:09;;;;;;;;;;;;;;;40.54;26.08;99492.44;5036237;28;19924;-89
2022/09/17 11:37:58;;;;;;;;;;;;;;;40.39;26.77;99483.91;5021795;28;20000;-89
2022/09/17 11:40:31;;;;;;;;;;;;;;;39.74;27.46;99481.69;5042927;28;19956;-87
2022/09/17 11:43:07;;;;;;;;;;;;;;;39.31;27.99;99492.41;5036347;28;19913;-89
2022/09/17 11:45:34;;;;;;;;;;;;;;;39.08;28.68;99487.75;5010598;28;20008;-89
2022/09/17 11:48:00;;;;;;;;;;;;;;;39.15;28.68;99485.03;5015922;28;19916;-88
2022/09/17 11:50:36;;;;;;;;;;;;;;;38.36;29.31;99483.84;5060869;28;20035;-87
2022/09/17 11:53:16;;;;;;;;;;;;;;;38.12;29.78;99467.41;5046596;28;21716;-90
2022/09/17 11:55:44;;;;;;;;;;;;;;;37.61;30.12;99464.91;5011445;28;19971;-88
2022/09/17 11:58:27;;;;;;;;;;;;;;;37.55;30.66;99462.41;5037537;28;19916;-88
2022/09/17 12:00:56;;;;;;;;;;;;;;;37.07;30.29;99453.44;5014365;28;20381;-89
2022/09/17 12:04:01;;;;;;;;;;;;;;;36.85;30.27;99451.31;5026163;28;19921;-88
2022/09/17 12:06:34;;;;;;;;;;;;;;;36.85;31.00;99452.13;5039699;28;20383;-89
2022/09/17 12:09:00;;;;;;;;;;;;;;;36.16;31.45;99436.94;5031288;28;19912;-88
2022/09/17 12:11:43;;;;;;;;;;;;;;;36.08;31.78;99435.91;5033463;28;20012;-88
2022/09/17 12:14:29;;;;;;;;;;;;;;;35.88;33.47;99427.44;5036706;28;19939;-86
2022/09/17 12:16:56;;;;;;;;;;;;;;;35.29;34.79;99419.88;5043475;28;19913;-88
2022/09/17 12:19:54;;;;;;;;;;;;;;;34.84;35.92;99429.31;5030050;28;19923;-88
2022/09/17 12:22:33;;;;;;;;;;;;;;;34.26;37.15;99427.56;5017610;28;19920;-86
2022/09/17 12:24:59;;;;;;;;;;;;;;;34.15;38.02;99429.19;5049278;28;19979;-87
2022/09/17 12:27:31;;;;;;;;;;;;;;;34.34;38.04;99422.22;5036705;28;19916;-86
2022/09/17 12:30:19;;;;;;;;;;;;;;;34.12;38.20;99424.31;5032360;28;19938;-87
2022/09/17 12:33:05;;;;;;;;;;;;;;;34.15;38.67;99411.66;5051123;28;19909;-87
2022/09/17 12:35:48;;;;;;;;;;;;;;;34.19;38.10;99398.66;5049166;28;19917;-87
2022/09/17 12:38:27;;;;;;;;;;;;;;;33.00;39.78;99405.66;5046769;28;19956;-87
2022/09/17 12:40:59;;;;;;;;;;;;;;;32.88;40.04;99396.44;5025400;28;20317;-86
2022/09/17 12:43:44;;;;;;;;;;;;;;;32.51;41.27;99397.06;5048007;28;19913;-87
2022/09/17 12:46:28;;;;;;;;;;;;;;;32.58;41.45;99382.63;5049388;28;19908;-86
2022/09/17 12:49:11;;;;;;;;;;;;;;;32.11;42.18;99386.34;5049174;28;19912;-87
2022/09/17 12:51:39;;;;;;;;;;;;;;;31.34;44.48;99388.22;5047528;28;19917;-86
2022/09/17 12:54:23;;;;;;;;;;;;;;;31.62;43.85;99373.97;5052726;28;20057;-86
2022/09/17 12:56:55;;;;;;;;;;;;;;;31.84;42.86;99361.75;5027176;28;19913;-87
2022/09/17 12:59:23;;;;;;;;;;;;;;;31.64;43.28;99368.88;5050792;28;19966;-86
2022/09/17 13:01:52;;;;;;;;;;;;;;;31.26;43.71;99372.41;5018519;28;19923;-87
2022/09/17 13:04:38;;;;;;;;;;;;;;;31.33;43.88;99378.28;5034406;28;19920;-85
2022/09/17 13:07:19;;;;;;;;;;;;;;;30.94;45.02;99379.31;5051289;28;20368;-86
2022/09/17 13:09:46;;;;;;;;;;;;;;;30.68;45.80;99374.56;5046297;28;19917;-87
2022/09/17 13:12:24;;;;;;;;;;;;;;;30.25;47.16;99378.06;5031128;28;19916;-86
2022/09/17 13:14:50;;;;;;;;;;;;;;;30.34;46.91;99365.06;5048033;28;20513;-87